Friday, October 20, 2017, 9:15 PM EDT
Back to Local

KLNS, Lancaster Airport

Location: Lititz, PA, United States Lat: 40.117
Local Time: 9:15 PM EDT ( 1:15 GMT) Lon: -76.3
Time Zone: US/Eastern Elev: 403 ft

Show me the last for .
Show Decoded

2017-10-20 20:53 METAR KLNS 210053Z 28006KT 10SM CLR 14/05 A3021 RMK AO2 SLP231 T01390050 =
2017-10-20 19:53 METAR KLNS 202353Z 30005KT 10SM CLR 15/05 A3021 RMK AO2 SLP230 T01500050 10222
                 20139 53010 =
2017-10-20 18:53 METAR KLNS 202253Z 31004KT 10SM CLR 17/04 A3020 RMK AO2 SLP226 T01670044 =
2017-10-20 17:53 METAR KLNS 202153Z 33006KT 10SM CLR 19/03 A3019 RMK AO2 SLP222 T01940033 =
2017-10-20 16:53 METAR KLNS 202053Z 32010KT 10SM CLR 21/03 A3018 RMK AO2 SLP219 T02110033 56005 =
2017-10-20 15:53 METAR KLNS 201953Z 32009KT 10SM CLR 22/04 A3019 RMK AO2 SLP221 T02170039 =
2017-10-20 14:53 METAR KLNS 201853Z 32012KT 10SM CLR 22/02 A3019 RMK AO2 SLP221 T02170022 =
2017-10-20 13:53 METAR KLNS 201753Z 33010KT 10SM CLR 22/03 A3020 RMK AO2 SLP224 T02170033 10217
                 20094 58013 =
2017-10-20 12:53 METAR KLNS 201653Z 33008KT 10SM CLR 22/06 A3022 RMK AO2 SLP231 T02170056 =
2017-10-20 11:53 METAR KLNS 201553Z 34008KT 10SM CLR 21/06 A3023 RMK AO2 SLP237 T02060056 =
2017-10-20 10:53 METAR KLNS 201453Z 31009KT 10SM CLR 19/09 A3024 RMK AO2 SLP237 T01890094 50009 =
2017-10-20 09:53 METAR KLNS 201353Z 32008KT 10SM CLR 17/12 A3024 RMK AO2 SLP239 T01720117 =
2017-10-20 08:53 METAR KLNS 201253Z 27004KT 10SM CLR 13/10 A3023 RMK AO2 SLP236 T01280100 =
2017-10-20 07:53 METAR KLNS 201153Z 31004KT 10SM CLR 09/08 A3021 RMK AO2 SLP229 T00940078 10117
                 20083 53018 =
2017-10-20 06:53 METAR KLNS 201053Z 25004KT 10SM CLR 09/08 A3019 RMK AO2 SLP222 T00940078 =
2017-10-20 05:53 METAR KLNS 200953Z 26005KT 10SM CLR 10/08 A3017 RMK AO2 SLP214 T01000083 =
2017-10-20 04:53 METAR KLNS 200853Z AUTO 28005KT 10SM CLR 09/08 A3016 RMK AO2 SLP210 T00940083
                 53005 =
2017-10-20 03:53 METAR KLNS 200753Z AUTO 00000KT 9SM CLR 09/08 A3015 RMK AO2 SLP207 T00890083 =
2017-10-20 02:53 METAR KLNS 200653Z AUTO 00000KT 10SM CLR 11/09 A3014 RMK AO2 SLP207 T01110089 =
2017-10-20 01:53 METAR KLNS 200553Z AUTO 00000KT 10SM CLR 11/09 A3014 RMK AO2 SLP205 T01110094
                 10161 20094 56001 =
2017-10-20 00:53 METAR KLNS 200453Z AUTO 00000KT 10SM CLR 11/09 A3014 RMK AO2 SLP205 T01060089
                 402280050 =
2017-10-19 23:53 METAR KLNS 200353Z AUTO 29003KT 10SM CLR 12/09 A3014 RMK AO2 SLP206 T01220094 =
2017-10-19 22:53 METAR KLNS 200253Z 25003KT 10SM CLR 13/11 A3014 RMK AO2 SLP207 T01330106 51006 =
2017-10-19 21:53 METAR KLNS 200153Z 28003KT 10SM CLR 13/10 A3014 RMK AO2 SLP207 T01330100 =

Support USWX by starting your Amazon purchase here.